sensor_id;sensor_type;location;lat;lon;timestamp;temperature;humidity
60313;DHT22;46158;52.850;6.970;2022-07-23T00:02:06;19.50;75.80
60313;DHT22;46158;52.850;6.970;2022-07-23T00:04:32;19.60;76.00
60313;DHT22;46158;52.850;6.970;2022-07-23T00:06:58;19.50;75.90
60313;DHT22;46158;52.850;6.970;2022-07-23T00:09:24;19.50;75.90
60313;DHT22;46158;52.850;6.970;2022-07-23T00:11:49;19.50;75.90
60313;DHT22;46158;52.850;6.970;2022-07-23T00:14:15;19.50;75.90
60313;DHT22;46158;52.850;6.970;2022-07-23T00:16:41;19.50;76.00
60313;DHT22;46158;52.850;6.970;2022-07-23T00:19:06;19.50;76.00
60313;DHT22;46158;52.850;6.970;2022-07-23T00:21:32;19.50;76.00
60313;DHT22;46158;52.850;6.970;2022-07-23T00:23:58;19.50;76.00
60313;DHT22;46158;52.850;6.970;2022-07-23T00:26:23;19.50;76.00
60313;DHT22;46158;52.850;6.970;2022-07-23T00:28:49;19.50;76.10
60313;DHT22;46158;52.850;6.970;2022-07-23T00:31:15;19.50;76.10
60313;DHT22;46158;52.850;6.970;2022-07-23T00:33:40;19.50;76.10
60313;DHT22;46158;52.850;6.970;2022-07-23T00:36:06;19.50;76.10
60313;DHT22;46158;52.850;6.970;2022-07-23T00:38:32;19.50;76.10
60313;DHT22;46158;52.850;6.970;2022-07-23T00:40:58;19.40;76.10
60313;DHT22;46158;52.850;6.970;2022-07-23T00:43:24;19.50;76.20
60313;DHT22;46158;52.850;6.970;2022-07-23T00:45:50;19.50;76.20
60313;DHT22;46158;52.850;6.970;2022-07-23T00:48:16;19.50;76.20
60313;DHT22;46158;52.850;6.970;2022-07-23T00:50:43;19.50;76.20
60313;DHT22;46158;52.850;6.970;2022-07-23T00:53:08;19.40;76.20
60313;DHT22;46158;52.850;6.970;2022-07-23T00:55:34;19.40;76.20
60313;DHT22;46158;52.850;6.970;2022-07-23T00:58:01;19.40;76.20
60313;DHT22;46158;52.850;6.970;2022-07-23T01:00:28;19.40;76.20
60313;DHT22;46158;52.850;6.970;2022-07-23T01:02:54;19.50;76.30
60313;DHT22;46158;52.850;6.970;2022-07-23T01:05:20;19.40;76.30
60313;DHT22;46158;52.850;6.970;2022-07-23T01:07:48;19.40;76.30
60313;DHT22;46158;52.850;6.970;2022-07-23T01:10:14;19.40;76.30
60313;DHT22;46158;52.850;6.970;2022-07-23T01:13:04;19.40;76.30
60313;DHT22;46158;52.850;6.970;2022-07-23T01:15:30;19.40;76.30
60313;DHT22;46158;52.850;6.970;2022-07-23T01:17:56;19.40;76.40
60313;DHT22;46158;52.850;6.970;2022-07-23T01:20:23;19.40;76.30
60313;DHT22;46158;52.850;6.970;2022-07-23T01:22:48;19.40;76.40
60313;DHT22;46158;52.850;6.970;2022-07-23T01:25:14;19.40;76.40
60313;DHT22;46158;52.850;6.970;2022-07-23T01:27:40;19.40;76.40
60313;DHT22;46158;52.850;6.970;2022-07-23T01:30:07;19.40;76.40
60313;DHT22;46158;52.850;6.970;2022-07-23T01:32:32;19.40;76.50
60313;DHT22;46158;52.850;6.970;2022-07-23T01:34:58;19.40;76.50
60313;DHT22;46158;52.850;6.970;2022-07-23T01:37:24;19.40;76.50
60313;DHT22;46158;52.850;6.970;2022-07-23T01:39:49;19.40;76.80
60313;DHT22;46158;52.850;6.970;2022-07-23T01:42:15;19.30;76.50
60313;DHT22;46158;52.850;6.970;2022-07-23T01:44:41;19.30;76.50
60313;DHT22;46158;52.850;6.970;2022-07-23T01:47:07;19.30;76.50
60313;DHT22;46158;52.850;6.970;2022-07-23T01:49:32;19.30;76.50
60313;DHT22;46158;52.850;6.970;2022-07-23T01:51:58;19.30;76.50
60313;DHT22;46158;52.850;6.970;2022-07-23T01:54:28;19.30;76.50
60313;DHT22;46158;52.850;6.970;2022-07-23T01:56:54;19.30;76.50
60313;DHT22;46158;52.850;6.970;2022-07-23T01:59:20;19.30;76.50
60313;DHT22;46158;52.850;6.970;2022-07-23T02:01:46;19.30;76.60
60313;DHT22;46158;52.850;6.970;2022-07-23T02:04:12;19.30;76.60
60313;DHT22;46158;52.850;6.970;2022-07-23T02:06:37;19.30;76.50
60313;DHT22;46158;52.850;6.970;2022-07-23T02:09:03;19.30;76.60
60313;DHT22;46158;52.850;6.970;2022-07-23T02:11:28;19.30;76.60
60313;DHT22;46158;52.850;6.970;2022-07-23T02:13:54;19.30;76.60
60313;DHT22;46158;52.850;6.970;2022-07-23T02:16:20;19.20;76.50
60313;DHT22;46158;52.850;6.970;2022-07-23T02:18:45;19.30;76.60
60313;DHT22;46158;52.850;6.970;2022-07-23T02:21:12;19.20;76.50
60313;DHT22;46158;52.850;6.970;2022-07-23T02:23:38;19.20;76.50
60313;DHT22;46158;52.850;6.970;2022-07-23T02:26:03;19.20;76.50
60313;DHT22;46158;52.850;6.970;2022-07-23T02:28:29;19.20;76.60
60313;DHT22;46158;52.850;6.970;2022-07-23T02:30:55;19.20;76.60
60313;DHT22;46158;52.850;6.970;2022-07-23T02:33:20;19.20;76.60
60313;DHT22;46158;52.850;6.970;2022-07-23T02:35:46;19.20;76.60
60313;DHT22;46158;52.850;6.970;2022-07-23T02:38:12;19.20;76.60
60313;DHT22;46158;52.850;6.970;2022-07-23T02:40:37;19.20;76.60
60313;DHT22;46158;52.850;6.970;2022-07-23T02:43:03;19.20;76.60
60313;DHT22;46158;52.850;6.970;2022-07-23T02:45:29;19.20;76.60
60313;DHT22;46158;52.850;6.970;2022-07-23T02:47:55;19.20;76.60
60313;DHT22;46158;52.850;6.970;2022-07-23T02:50:21;19.20;76.60
60313;DHT22;46158;52.850;6.970;2022-07-23T02:52:46;19.20;76.60
60313;DHT22;46158;52.850;6.970;2022-07-23T02:55:12;19.20;77.30
60313;DHT22;46158;52.850;6.970;2022-07-23T02:57:38;19.20;77.30
60313;DHT22;46158;52.850;6.970;2022-07-23T03:00:05;19.20;76.60
60313;DHT22;46158;52.850;6.970;2022-07-23T03:02:31;19.10;76.60
60313;DHT22;46158;52.850;6.970;2022-07-23T03:04:57;19.10;76.60
60313;DHT22;46158;52.850;6.970;2022-07-23T03:07:23;19.10;76.60
60313;DHT22;46158;52.850;6.970;2022-07-23T03:09:48;19.10;76.60
60313;DHT22;46158;52.850;6.970;2022-07-23T03:12:14;19.10;76.60
60313;DHT22;46158;52.850;6.970;2022-07-23T03:14:41;19.10;76.60
60313;DHT22;46158;52.850;6.970;2022-07-23T03:17:07;19.10;76.60
60313;DHT22;46158;52.850;6.970;2022-07-23T03:19:32;19.10;76.60
60313;DHT22;46158;52.850;6.970;2022-07-23T03:21:58;19.10;76.60
60313;DHT22;46158;52.850;6.970;2022-07-23T03:24:24;19.10;76.60
60313;DHT22;46158;52.850;6.970;2022-07-23T03:27:09;19.10;76.60
60313;DHT22;46158;52.850;6.970;2022-07-23T03:29:35;19.10;76.60
60313;DHT22;46158;52.850;6.970;2022-07-23T03:32:03;19.10;76.60
60313;DHT22;46158;52.850;6.970;2022-07-23T03:34:28;19.10;76.60
60313;DHT22;46158;52.850;6.970;2022-07-23T03:36:54;19.00;76.60
60313;DHT22;46158;52.850;6.970;2022-07-23T03:39:20;19.00;76.60
60313;DHT22;46158;52.850;6.970;2022-07-23T03:41:45;19.00;76.60
60313;DHT22;46158;52.850;6.970;2022-07-23T03:44:11;19.00;76.60
60313;DHT22;46158;52.850;6.970;2022-07-23T03:46:37;19.00;76.60
60313;DHT22;46158;52.850;6.970;2022-07-23T03:49:02;19.00;76.60
60313;DHT22;46158;52.850;6.970;2022-07-23T03:51:28;19.00;76.60
60313;DHT22;46158;52.850;6.970;2022-07-23T03:53:54;19.00;76.60
60313;DHT22;46158;52.850;6.970;2022-07-23T03:56:21;19.00;76.60
60313;DHT22;46158;52.850;6.970;2022-07-23T03:58:47;19.00;76.60
60313;DHT22;46158;52.850;6.970;2022-07-23T04:01:13;19.00;76.60
60313;DHT22;46158;52.850;6.970;2022-07-23T04:03:39;19.00;76.60
60313;DHT22;46158;52.850;6.970;2022-07-23T04:06:05;19.00;76.60
60313;DHT22;46158;52.850;6.970;2022-07-23T04:08:31;19.00;76.60
60313;DHT22;46158;52.850;6.970;2022-07-23T04:10:57;19.00;76.60
60313;DHT22;46158;52.850;6.970;2022-07-23T04:13:23;19.00;76.60
60313;DHT22;46158;52.850;6.970;2022-07-23T04:15:48;19.00;76.60
60313;DHT22;46158;52.850;6.970;2022-07-23T04:18:15;19.00;76.60
60313;DHT22;46158;52.850;6.970;2022-07-23T04:20:43;18.90;76.50
60313;DHT22;46158;52.850;6.970;2022-07-23T04:23:09;18.90;76.50
60313;DHT22;46158;52.850;6.970;2022-07-23T04:25:35;18.90;76.50
60313;DHT22;46158;52.850;6.970;2022-07-23T04:28:01;18.90;76.50
60313;DHT22;46158;52.850;6.970;2022-07-23T04:30:27;18.90;76.50
60313;DHT22;46158;52.850;6.970;2022-07-23T04:32:52;18.90;76.60
60313;DHT22;46158;52.850;6.970;2022-07-23T04:35:18;18.90;76.40
60313;DHT22;46158;52.850;6.970;2022-07-23T04:37:44;18.90;75.70
60313;DHT22;46158;52.850;6.970;2022-07-23T04:40:10;18.80;74.70
60313;DHT22;46158;52.850;6.970;2022-07-23T04:42:36;18.80;74.30
60313;DHT22;46158;52.850;6.970;2022-07-23T04:45:02;18.70;74.00
60313;DHT22;46158;52.850;6.970;2022-07-23T04:47:29;18.70;73.80
60313;DHT22;46158;52.850;6.970;2022-07-23T04:49:56;18.60;73.80
60313;DHT22;46158;52.850;6.970;2022-07-23T04:52:22;18.60;73.70
60313;DHT22;46158;52.850;6.970;2022-07-23T04:54:48;18.60;73.50
60313;DHT22;46158;52.850;6.970;2022-07-23T04:57:13;18.50;73.40
60313;DHT22;46158;52.850;6.970;2022-07-23T04:59:39;18.50;73.30
60313;DHT22;46158;52.850;6.970;2022-07-23T05:02:05;18.50;73.20
60313;DHT22;46158;52.850;6.970;2022-07-23T05:04:30;18.40;73.10
60313;DHT22;46158;52.850;6.970;2022-07-23T05:06:57;18.40;73.20
60313;DHT22;46158;52.850;6.970;2022-07-23T05:09:23;18.40;73.20
60313;DHT22;46158;52.850;6.970;2022-07-23T05:11:50;18.30;73.20
60313;DHT22;46158;52.850;6.970;2022-07-23T05:14:16;18.30;73.30
60313;DHT22;46158;52.850;6.970;2022-07-23T05:16:41;18.20;73.40
60313;DHT22;46158;52.850;6.970;2022-07-23T05:19:07;18.20;73.60
60313;DHT22;46158;52.850;6.970;2022-07-23T05:21:33;18.20;73.80
60313;DHT22;46158;52.850;6.970;2022-07-23T05:23:59;18.20;74.00
60313;DHT22;46158;52.850;6.970;2022-07-23T05:26:25;18.20;74.10
60313;DHT22;46158;52.850;6.970;2022-07-23T05:28:51;18.20;74.30
60313;DHT22;46158;52.850;6.970;2022-07-23T05:31:16;18.10;74.30
60313;DHT22;46158;52.850;6.970;2022-07-23T05:33:43;18.10;74.40
60313;DHT22;46158;52.850;6.970;2022-07-23T05:36:09;18.10;74.60
60313;DHT22;46158;52.850;6.970;2022-07-23T05:38:34;18.10;74.80
60313;DHT22;46158;52.850;6.970;2022-07-23T05:41:00;18.10;75.00
60313;DHT22;46158;52.850;6.970;2022-07-23T05:43:26;18.10;75.10
60313;DHT22;46158;52.850;6.970;2022-07-23T05:45:52;18.10;75.20
60313;DHT22;46158;52.850;6.970;2022-07-23T05:48:18;18.10;75.30
60313;DHT22;46158;52.850;6.970;2022-07-23T05:50:43;18.10;75.50
60313;DHT22;46158;52.850;6.970;2022-07-23T05:53:09;18.10;75.70
60313;DHT22;46158;52.850;6.970;2022-07-23T05:55:35;18.10;75.80
60313;DHT22;46158;52.850;6.970;2022-07-23T05:58:00;18.10;75.80
60313;DHT22;46158;52.850;6.970;2022-07-23T06:00:27;18.10;75.90
60313;DHT22;46158;52.850;6.970;2022-07-23T06:02:53;18.10;75.90
60313;DHT22;46158;52.850;6.970;2022-07-23T06:05:18;18.10;75.80
60313;DHT22;46158;52.850;6.970;2022-07-23T06:07:44;18.20;75.80
60313;DHT22;46158;52.850;6.970;2022-07-23T06:10:10;18.20;75.80
60313;DHT22;46158;52.850;6.970;2022-07-23T06:12:36;18.20;75.80
60313;DHT22;46158;52.850;6.970;2022-07-23T06:15:03;18.20;75.80
60313;DHT22;46158;52.850;6.970;2022-07-23T06:17:28;18.30;75.80
60313;DHT22;46158;52.850;6.970;2022-07-23T06:19:55;18.20;75.80
60313;DHT22;46158;52.850;6.970;2022-07-23T06:22:21;18.30;75.90
60313;DHT22;46158;52.850;6.970;2022-07-23T06:24:47;18.30;76.00
60313;DHT22;46158;52.850;6.970;2022-07-23T06:27:13;18.30;76.00
60313;DHT22;46158;52.850;6.970;2022-07-23T06:29:38;18.30;76.10
60313;DHT22;46158;52.850;6.970;2022-07-23T06:32:06;18.30;76.80
60313;DHT22;46158;52.850;6.970;2022-07-23T06:34:32;18.30;76.10
60313;DHT22;46158;52.850;6.970;2022-07-23T06:36:58;18.30;76.30
60313;DHT22;46158;52.850;6.970;2022-07-23T06:39:24;18.40;76.40
60313;DHT22;46158;52.850;6.970;2022-07-23T06:41:49;18.40;77.10
60313;DHT22;46158;52.850;6.970;2022-07-23T06:44:15;18.40;76.40
60313;DHT22;46158;52.850;6.970;2022-07-23T06:46:41;18.50;76.50
60313;DHT22;46158;52.850;6.970;2022-07-23T06:49:07;18.40;76.50
60313;DHT22;46158;52.850;6.970;2022-07-23T06:51:33;18.50;76.60
60313;DHT22;46158;52.850;6.970;2022-07-23T06:53:59;18.50;76.70
60313;DHT22;46158;52.850;6.970;2022-07-23T06:56:24;18.50;76.80
60313;DHT22;46158;52.850;6.970;2022-07-23T06:58:50;18.60;76.90
60313;DHT22;46158;52.850;6.970;2022-07-23T07:01:16;18.60;76.90
60313;DHT22;46158;52.850;6.970;2022-07-23T07:03:42;18.60;77.00
60313;DHT22;46158;52.850;6.970;2022-07-23T07:06:08;18.60;77.10
60313;DHT22;46158;52.850;6.970;2022-07-23T07:08:33;18.60;77.10
60313;DHT22;46158;52.850;6.970;2022-07-23T07:10:59;18.70;77.20
60313;DHT22;46158;52.850;6.970;2022-07-23T07:13:25;18.70;77.30
60313;DHT22;46158;52.850;6.970;2022-07-23T07:15:50;18.70;77.30
60313;DHT22;46158;52.850;6.970;2022-07-23T07:18:16;18.70;77.30
60313;DHT22;46158;52.850;6.970;2022-07-23T07:20:42;18.70;77.40
60313;DHT22;46158;52.850;6.970;2022-07-23T07:23:07;18.80;77.50
60313;DHT22;46158;52.850;6.970;2022-07-23T07:25:34;18.80;77.50
60313;DHT22;46158;52.850;6.970;2022-07-23T07:27:59;18.80;77.60
60313;DHT22;46158;52.850;6.970;2022-07-23T07:30:25;18.80;77.60
60313;DHT22;46158;52.850;6.970;2022-07-23T07:32:50;18.90;77.70
60313;DHT22;46158;52.850;6.970;2022-07-23T07:35:16;18.90;77.70
60313;DHT22;46158;52.850;6.970;2022-07-23T07:37:42;18.90;77.70
60313;DHT22;46158;52.850;6.970;2022-07-23T07:40:08;19.00;77.80
60313;DHT22;46158;52.850;6.970;2022-07-23T07:42:33;19.00;77.80
60313;DHT22;46158;52.850;6.970;2022-07-23T07:44:59;19.00;77.80
60313;DHT22;46158;52.850;6.970;2022-07-23T07:47:25;19.00;77.80
60313;DHT22;46158;52.850;6.970;2022-07-23T07:49:51;19.10;77.80
60313;DHT22;46158;52.850;6.970;2022-07-23T07:52:16;19.10;77.80
60313;DHT22;46158;52.850;6.970;2022-07-23T07:54:42;19.10;77.80
60313;DHT22;46158;52.850;6.970;2022-07-23T07:57:08;19.10;77.80
60313;DHT22;46158;52.850;6.970;2022-07-23T07:59:34;19.20;77.90
60313;DHT22;46158;52.850;6.970;2022-07-23T08:01:59;19.20;77.80
60313;DHT22;46158;52.850;6.970;2022-07-23T08:04:25;19.20;77.80
60313;DHT22;46158;52.850;6.970;2022-07-23T08:06:51;19.20;77.70
60313;DHT22;46158;52.850;6.970;2022-07-23T08:09:16;19.30;77.80
60313;DHT22;46158;52.850;6.970;2022-07-23T08:11:42;19.30;77.70
60313;DHT22;46158;52.850;6.970;2022-07-23T08:14:08;19.30;77.80
60313;DHT22;46158;52.850;6.970;2022-07-23T08:16:34;19.40;77.80
60313;DHT22;46158;52.850;6.970;2022-07-23T08:19:00;19.40;77.80
60313;DHT22;46158;52.850;6.970;2022-07-23T08:21:25;19.40;77.70
60313;DHT22;46158;52.850;6.970;2022-07-23T08:23:51;19.40;77.70
60313;DHT22;46158;52.850;6.970;2022-07-23T08:26:17;19.40;77.70
60313;DHT22;46158;52.850;6.970;2022-07-23T08:28:42;19.40;77.70
60313;DHT22;46158;52.850;6.970;2022-07-23T08:31:08;19.40;77.70
60313;DHT22;46158;52.850;6.970;2022-07-23T08:33:36;19.50;77.70
60313;DHT22;46158;52.850;6.970;2022-07-23T08:36:03;19.50;77.70
60313;DHT22;46158;52.850;6.970;2022-07-23T08:38:29;19.50;77.60
60313;DHT22;46158;52.850;6.970;2022-07-23T08:40:56;19.50;77.60
60313;DHT22;46158;52.850;6.970;2022-07-23T08:43:30;19.50;77.50
60313;DHT22;46158;52.850;6.970;2022-07-23T08:45:58;19.60;77.60
60313;DHT22;46158;52.850;6.970;2022-07-23T08:48:26;19.60;77.50
60313;DHT22;46158;52.850;6.970;2022-07-23T08:50:56;19.60;77.50
60313;DHT22;46158;52.850;6.970;2022-07-23T08:53:22;19.60;77.50
60313;DHT22;46158;52.850;6.970;2022-07-23T08:55:50;19.60;77.60
60313;DHT22;46158;52.850;6.970;2022-07-23T08:58:17;19.60;78.20
60313;DHT22;46158;52.850;6.970;2022-07-23T09:00:44;19.60;77.50
60313;DHT22;46158;52.850;6.970;2022-07-23T09:03:19;19.60;77.50
60313;DHT22;46158;52.850;6.970;2022-07-23T09:05:46;19.60;77.50
60313;DHT22;46158;52.850;6.970;2022-07-23T09:08:14;19.70;77.50
60313;DHT22;46158;52.850;6.970;2022-07-23T09:10:59;19.60;77.50
60313;DHT22;46158;52.850;6.970;2022-07-23T09:13:28;19.70;77.50
60313;DHT22;46158;52.850;6.970;2022-07-23T09:15:55;19.70;77.50
60313;DHT22;46158;52.850;6.970;2022-07-23T09:18:32;19.70;77.50
60313;DHT22;46158;52.850;6.970;2022-07-23T09:21:09;19.70;77.50
60313;DHT22;46158;52.850;6.970;2022-07-23T09:23:46;19.70;77.50
60313;DHT22;46158;52.850;6.970;2022-07-23T09:26:42;19.70;77.50
60313;DHT22;46158;52.850;6.970;2022-07-23T09:29:30;19.70;78.20
60313;DHT22;46158;52.850;6.970;2022-07-23T09:32:01;19.70;77.50
60313;DHT22;46158;52.850;6.970;2022-07-23T09:34:35;19.70;77.50
60313;DHT22;46158;52.850;6.970;2022-07-23T09:37:17;19.70;77.50
60313;DHT22;46158;52.850;6.970;2022-07-23T09:39:44;19.70;77.50
60313;DHT22;46158;52.850;6.970;2022-07-23T09:42:24;19.70;77.50
60313;DHT22;46158;52.850;6.970;2022-07-23T09:44:52;19.70;77.50
60313;DHT22;46158;52.850;6.970;2022-07-23T09:47:20;19.80;77.50
60313;DHT22;46158;52.850;6.970;2022-07-23T09:50:09;19.70;77.40
60313;DHT22;46158;52.850;6.970;2022-07-23T09:52:47;19.80;77.50
60313;DHT22;46158;52.850;6.970;2022-07-23T09:55:14;19.80;77.50
60313;DHT22;46158;52.850;6.970;2022-07-23T09:57:41;19.80;77.40
60313;DHT22;46158;52.850;6.970;2022-07-23T10:00:09;19.80;77.50
60313;DHT22;46158;52.850;6.970;2022-07-23T10:02:36;19.80;77.50
60313;DHT22;46158;52.850;6.970;2022-07-23T10:05:03;19.80;77.40
60313;DHT22;46158;52.850;6.970;2022-07-23T10:07:31;19.80;77.40
60313;DHT22;46158;52.850;6.970;2022-07-23T10:10:00;19.80;77.40
60313;DHT22;46158;52.850;6.970;2022-07-23T10:12:27;19.80;77.30
60313;DHT22;46158;52.850;6.970;2022-07-23T10:14:59;19.80;77.30
60313;DHT22;46158;52.850;6.970;2022-07-23T10:17:27;19.90;77.40
60313;DHT22;46158;52.850;6.970;2022-07-23T10:19:52;19.80;77.30
60313;DHT22;46158;52.850;6.970;2022-07-23T10:22:33;19.90;77.40
60313;DHT22;46158;52.850;6.970;2022-07-23T10:30:30;19.90;77.20
60313;DHT22;46158;52.850;6.970;2022-07-23T10:33:03;19.90;77.20
60313;DHT22;46158;52.850;6.970;2022-07-23T10:38:11;19.90;77.10
60313;DHT22;46158;52.850;6.970;2022-07-23T10:43:21;20.00;77.10
60313;DHT22;46158;52.850;6.970;2022-07-23T10:45:47;19.90;77.00
60313;DHT22;46158;52.850;6.970;2022-07-23T10:48:16;20.00;77.00
60313;DHT22;46158;52.850;6.970;2022-07-23T10:51:10;20.00;77.00
60313;DHT22;46158;52.850;6.970;2022-07-23T10:59:20;20.00;77.00
60313;DHT22;46158;52.850;6.970;2022-07-23T11:01:46;20.00;76.90
60313;DHT22;46158;52.850;6.970;2022-07-23T11:04:12;20.00;76.90
60313;DHT22;46158;52.850;6.970;2022-07-23T11:09:30;20.00;76.80
60313;DHT22;46158;52.850;6.970;2022-07-23T11:15:14;20.00;76.70
60313;DHT22;46158;52.850;6.970;2022-07-23T11:27:47;20.10;76.60
60313;DHT22;46158;52.850;6.970;2022-07-23T11:35:41;20.10;76.60
60313;DHT22;46158;52.850;6.970;2022-07-23T11:40:37;20.10;76.40
60313;DHT22;46158;52.850;6.970;2022-07-23T11:43:07;20.10;76.40
60313;DHT22;46158;52.850;6.970;2022-07-23T11:45:45;20.20;76.30
60313;DHT22;46158;52.850;6.970;2022-07-23T11:50:43;20.20;76.20
60313;DHT22;46158;52.850;6.970;2022-07-23T11:53:09;20.20;76.20
60313;DHT22;46158;52.850;6.970;2022-07-23T11:55:34;20.20;76.10
60313;DHT22;46158;52.850;6.970;2022-07-23T11:58:00;20.20;76.10
60313;DHT22;46158;52.850;6.970;2022-07-23T12:00:30;20.20;76.10
60313;DHT22;46158;52.850;6.970;2022-07-23T12:03:01;20.20;76.10
60313;DHT22;46158;52.850;6.970;2022-07-23T12:05:30;20.20;76.10
60313;DHT22;46158;52.850;6.970;2022-07-23T12:07:57;20.20;76.10
60313;DHT22;46158;52.850;6.970;2022-07-23T12:10:30;20.20;76.00
60313;DHT22;46158;52.850;6.970;2022-07-23T12:13:13;20.30;76.00
60313;DHT22;46158;52.850;6.970;2022-07-23T12:15:42;20.30;75.90
60313;DHT22;46158;52.850;6.970;2022-07-23T12:18:10;20.30;75.90
60313;DHT22;46158;52.850;6.970;2022-07-23T12:20:48;20.30;75.90
60313;DHT22;46158;52.850;6.970;2022-07-23T12:23:17;20.30;75.90
60313;DHT22;46158;52.850;6.970;2022-07-23T12:25:45;20.30;75.80
60313;DHT22;46158;52.850;6.970;2022-07-23T12:28:13;20.30;75.80
60313;DHT22;46158;52.850;6.970;2022-07-23T12:30:41;20.30;75.70
60313;DHT22;46158;52.850;6.970;2022-07-23T12:33:09;20.30;75.70
60313;DHT22;46158;52.850;6.970;2022-07-23T12:35:40;20.30;75.70
60313;DHT22;46158;52.850;6.970;2022-07-23T12:38:10;20.30;75.60
60313;DHT22;46158;52.850;6.970;2022-07-23T12:43:11;20.30;75.60
60313;DHT22;46158;52.850;6.970;2022-07-23T12:45:49;20.30;76.20
60313;DHT22;46158;52.850;6.970;2022-07-23T12:51:15;20.30;75.50
60313;DHT22;46158;52.850;6.970;2022-07-23T12:53:47;20.30;75.40
60313;DHT22;46158;52.850;6.970;2022-07-23T12:56:36;20.30;75.40
60313;DHT22;46158;52.850;6.970;2022-07-23T12:59:08;20.40;75.40
60313;DHT22;46158;52.850;6.970;2022-07-23T13:01:37;20.30;75.30
60313;DHT22;46158;52.850;6.970;2022-07-23T13:04:04;20.30;75.30
60313;DHT22;46158;52.850;6.970;2022-07-23T13:06:54;20.40;75.30
60313;DHT22;46158;52.850;6.970;2022-07-23T13:09:22;20.40;75.30
60313;DHT22;46158;52.850;6.970;2022-07-23T13:11:49;20.30;75.20
60313;DHT22;46158;52.850;6.970;2022-07-23T13:14:16;20.40;75.30
60313;DHT22;46158;52.850;6.970;2022-07-23T13:16:43;20.40;75.20
60313;DHT22;46158;52.850;6.970;2022-07-23T13:19:10;20.40;75.30
60313;DHT22;46158;52.850;6.970;2022-07-23T13:21:35;20.40;75.20
60313;DHT22;46158;52.850;6.970;2022-07-23T13:24:01;20.40;75.20
60313;DHT22;46158;52.850;6.970;2022-07-23T13:26:27;20.40;75.20
60313;DHT22;46158;52.850;6.970;2022-07-23T13:28:53;20.40;75.10
60313;DHT22;46158;52.850;6.970;2022-07-23T13:31:20;20.40;75.10
60313;DHT22;46158;52.850;6.970;2022-07-23T13:33:46;20.40;75.00
60313;DHT22;46158;52.850;6.970;2022-07-23T13:36:12;20.40;75.00
60313;DHT22;46158;52.850;6.970;2022-07-23T13:38:37;20.40;75.00
60313;DHT22;46158;52.850;6.970;2022-07-23T13:41:04;20.40;75.00
60313;DHT22;46158;52.850;6.970;2022-07-23T13:43:30;20.50;75.10
60313;DHT22;46158;52.850;6.970;2022-07-23T13:45:56;20.40;75.00
60313;DHT22;46158;52.850;6.970;2022-07-23T13:48:22;20.50;75.00
60313;DHT22;46158;52.850;6.970;2022-07-23T13:50:49;20.50;75.00
60313;DHT22;46158;52.850;6.970;2022-07-23T13:53:18;20.40;74.90
60313;DHT22;46158;52.850;6.970;2022-07-23T13:55:45;20.50;75.00
60313;DHT22;46158;52.850;6.970;2022-07-23T13:58:11;20.50;75.00
60313;DHT22;46158;52.850;6.970;2022-07-23T14:00:40;20.50;75.00
60313;DHT22;46158;52.850;6.970;2022-07-23T14:03:07;20.50;75.00
60313;DHT22;46158;52.850;6.970;2022-07-23T14:05:33;20.50;75.00
60313;DHT22;46158;52.850;6.970;2022-07-23T14:07:58;20.50;75.00
60313;DHT22;46158;52.850;6.970;2022-07-23T14:10:25;20.50;74.90
60313;DHT22;46158;52.850;6.970;2022-07-23T14:12:51;20.50;75.20
60313;DHT22;46158;52.850;6.970;2022-07-23T14:15:26;20.50;74.90
60313;DHT22;46158;52.850;6.970;2022-07-23T14:17:52;20.50;74.90
60313;DHT22;46158;52.850;6.970;2022-07-23T14:20:18;20.50;74.90
60313;DHT22;46158;52.850;6.970;2022-07-23T14:22:44;20.50;75.00
60313;DHT22;46158;52.850;6.970;2022-07-23T14:25:11;20.50;74.90
60313;DHT22;46158;52.850;6.970;2022-07-23T14:27:37;20.50;74.90
60313;DHT22;46158;52.850;6.970;2022-07-23T14:30:08;20.50;74.80
60313;DHT22;46158;52.850;6.970;2022-07-23T14:32:34;20.50;74.80
60313;DHT22;46158;52.850;6.970;2022-07-23T14:34:59;20.50;74.80
60313;DHT22;46158;52.850;6.970;2022-07-23T14:37:25;20.50;74.80
60313;DHT22;46158;52.850;6.970;2022-07-23T14:39:51;20.50;74.80
60313;DHT22;46158;52.850;6.970;2022-07-23T14:42:18;20.50;74.80
60313;DHT22;46158;52.850;6.970;2022-07-23T14:44:43;20.50;74.80
60313;DHT22;46158;52.850;6.970;2022-07-23T14:47:09;20.50;74.80
60313;DHT22;46158;52.850;6.970;2022-07-23T14:49:35;20.50;74.70
60313;DHT22;46158;52.850;6.970;2022-07-23T14:52:02;20.50;74.80
60313;DHT22;46158;52.850;6.970;2022-07-23T14:54:29;20.60;74.80
60313;DHT22;46158;52.850;6.970;2022-07-23T14:56:56;20.50;74.70
60313;DHT22;46158;52.850;6.970;2022-07-23T14:59:23;20.50;74.70
60313;DHT22;46158;52.850;6.970;2022-07-23T15:01:49;20.50;74.70
60313;DHT22;46158;52.850;6.970;2022-07-23T15:04:15;20.60;74.70
60313;DHT22;46158;52.850;6.970;2022-07-23T15:06:41;20.60;74.70
60313;DHT22;46158;52.850;6.970;2022-07-23T15:09:07;20.60;74.70
60313;DHT22;46158;52.850;6.970;2022-07-23T15:11:35;20.50;74.70
60313;DHT22;46158;52.850;6.970;2022-07-23T15:14:03;20.60;74.70
60313;DHT22;46158;52.850;6.970;2022-07-23T15:16:29;20.60;74.80
60313;DHT22;46158;52.850;6.970;2022-07-23T15:18:55;20.50;74.70
60313;DHT22;46158;52.850;6.970;2022-07-23T15:21:21;20.60;74.80
60313;DHT22;46158;52.850;6.970;2022-07-23T15:23:47;20.60;74.70
60313;DHT22;46158;52.850;6.970;2022-07-23T15:26:13;20.50;75.30
60313;DHT22;46158;52.850;6.970;2022-07-23T15:28:41;20.60;74.70
60313;DHT22;46158;52.850;6.970;2022-07-23T15:31:07;20.60;74.70
60313;DHT22;46158;52.850;6.970;2022-07-23T15:33:33;20.60;74.70
60313;DHT22;46158;52.850;6.970;2022-07-23T15:36:01;20.60;74.70
60313;DHT22;46158;52.850;6.970;2022-07-23T15:38:27;20.60;74.70
60313;DHT22;46158;52.850;6.970;2022-07-23T15:40:56;20.60;74.70
60313;DHT22;46158;52.850;6.970;2022-07-23T15:43:23;20.60;74.60
60313;DHT22;46158;52.850;6.970;2022-07-23T15:45:49;20.60;74.60
60313;DHT22;46158;52.850;6.970;2022-07-23T15:48:16;20.60;74.60
60313;DHT22;46158;52.850;6.970;2022-07-23T15:50:43;20.60;74.60
60313;DHT22;46158;52.850;6.970;2022-07-23T15:53:08;20.60;74.60
60313;DHT22;46158;52.850;6.970;2022-07-23T15:55:35;20.60;74.60
60313;DHT22;46158;52.850;6.970;2022-07-23T15:58:02;20.60;74.60
60313;DHT22;46158;52.850;6.970;2022-07-23T16:00:29;20.70;74.60
60313;DHT22;46158;52.850;6.970;2022-07-23T16:02:54;20.70;74.60
60313;DHT22;46158;52.850;6.970;2022-07-23T16:05:20;20.70;74.60
60313;DHT22;46158;52.850;6.970;2022-07-23T16:08:00;20.70;74.70
60313;DHT22;46158;52.850;6.970;2022-07-23T16:10:26;20.70;74.60
60313;DHT22;46158;52.850;6.970;2022-07-23T16:12:53;20.70;74.60
60313;DHT22;46158;52.850;6.970;2022-07-23T16:15:19;20.70;74.60
60313;DHT22;46158;52.850;6.970;2022-07-23T16:17:45;20.70;74.60
60313;DHT22;46158;52.850;6.970;2022-07-23T16:20:20;20.70;74.60